createdAt,value
2018-08-09T00:02:04.055Z,95657.00
2018-08-09T00:07:33.368Z,95644.00
2018-08-09T00:13:02.632Z,95642.00
2018-08-09T00:18:32.631Z,95646.00
2018-08-09T00:24:01.923Z,95641.00
2018-08-09T00:29:32.448Z,95634.00
2018-08-09T00:35:01.658Z,95642.00
2018-08-09T00:40:30.932Z,95627.00
2018-08-09T00:46:00.120Z,95611.00
2018-08-09T00:51:29.380Z,95615.00
2018-08-09T00:56:58.691Z,95618.00
2018-08-09T01:02:28.003Z,95609.00
2018-08-09T01:07:58.334Z,95605.00
2018-08-09T01:13:29.492Z,95607.00
2018-08-09T01:18:58.897Z,95610.00
2018-08-09T01:24:28.163Z,95602.00
2018-08-09T01:29:57.363Z,95600.00
2018-08-09T01:35:26.716Z,95597.00
2018-08-09T01:40:56.065Z,95589.00
2018-08-09T01:46:25.763Z,95594.00
2018-08-09T01:51:55.071Z,95598.00
2018-08-09T01:57:28.697Z,95594.00
2018-08-09T02:02:58.011Z,95586.00
2018-08-09T02:08:27.372Z,95594.00
2018-08-09T02:13:56.615Z,95597.00
2018-08-09T02:19:25.984Z,95598.00
2018-08-09T02:24:55.327Z,95592.00
2018-08-09T02:30:24.675Z,95594.00
2018-08-09T02:35:54.007Z,95599.00
2018-08-09T02:41:23.391Z,95596.00
2018-08-09T02:46:53.050Z,95585.00
2018-08-09T02:52:22.440Z,95590.00
2018-08-09T02:57:52.529Z,95578.00
2018-08-09T03:03:21.883Z,95582.00
2018-08-09T03:08:51.196Z,95570.00
2018-08-09T03:14:20.523Z,95559.00
2018-08-09T03:19:49.864Z,95553.00
2018-08-09T03:25:19.126Z,95553.00
2018-08-09T03:30:48.532Z,95557.00
2018-08-09T03:36:17.751Z,95558.00
2018-08-09T03:41:46.966Z,95557.00
2018-08-09T03:47:16.221Z,95556.00
2018-08-09T03:52:45.472Z,95556.00
2018-08-09T03:58:14.740Z,95562.00
2018-08-09T04:03:43.968Z,95558.00
2018-08-09T04:09:13.267Z,95558.00
2018-08-09T04:14:43.475Z,95571.00
2018-08-09T04:20:12.760Z,95574.00
2018-08-09T04:25:42.055Z,95579.00
2018-08-09T04:31:11.286Z,95574.00
2018-08-09T04:36:40.580Z,95577.00
2018-08-09T04:42:09.839Z,95584.00
2018-08-09T04:47:39.164Z,95578.00
2018-08-09T04:53:08.359Z,95572.00
2018-08-09T04:58:37.667Z,95576.00
2018-08-09T05:04:06.871Z,95583.00
2018-08-09T05:09:36.031Z,95588.00
2018-08-09T05:15:05.308Z,95591.00
2018-08-09T05:20:34.626Z,95598.00
2018-08-09T05:26:03.832Z,95598.00
2018-08-09T05:31:33.038Z,95603.00
2018-08-09T05:37:02.219Z,95603.00
2018-08-09T05:42:31.429Z,95594.00
2018-08-09T05:48:00.719Z,95585.00
2018-08-09T05:53:30.001Z,95595.00
2018-08-09T05:58:59.272Z,95598.00
2018-08-09T06:04:28.471Z,95591.00
2018-08-09T06:09:57.653Z,95601.00
2018-08-09T06:15:26.875Z,95606.00
2018-08-09T06:20:56.075Z,95606.00
2018-08-09T06:26:25.408Z,95605.00
2018-08-09T06:31:54.724Z,95615.00
2018-08-09T06:37:23.981Z,95614.00
2018-08-09T06:42:53.265Z,95619.00
2018-08-09T06:48:22.507Z,95609.00
2018-08-09T06:53:51.735Z,95616.00
2018-08-09T06:59:21.060Z,95606.00
2018-08-09T07:04:50.302Z,95614.00
2018-08-09T07:10:19.579Z,95605.00
2018-08-09T07:15:48.823Z,95598.00
2018-08-09T07:21:18.352Z,95610.00
2018-08-09T07:26:47.722Z,95602.00
2018-08-09T07:32:17.483Z,95605.00
2018-08-09T07:37:46.748Z,95595.00
2018-08-09T07:43:15.992Z,95594.00
2018-08-09T07:48:45.292Z,95586.00
2018-08-09T07:54:14.489Z,95587.00
2018-08-09T07:59:43.816Z,95582.00
2018-08-09T08:05:13.035Z,95578.00
2018-08-09T08:10:42.260Z,95571.00
2018-08-09T08:16:11.470Z,95562.00
2018-08-09T08:21:40.692Z,95561.00
2018-08-09T08:27:09.877Z,95566.00
2018-08-09T08:32:39.791Z,95561.00
2018-08-09T08:38:09.035Z,95555.00
2018-08-09T08:43:38.296Z,95550.00
2018-08-09T08:49:07.524Z,95549.00
2018-08-09T08:54:36.739Z,95544.00
2018-08-09T09:00:08.425Z,95532.00
2018-08-09T09:05:37.644Z,95530.00
2018-08-09T09:11:06.896Z,95525.00
2018-08-09T09:16:36.139Z,95514.00
2018-08-09T09:22:05.399Z,95509.00
2018-08-09T09:27:34.732Z,95499.00
2018-08-09T09:33:03.923Z,95504.00
2018-08-09T09:38:33.154Z,95499.00
2018-08-09T09:44:02.387Z,95502.00
2018-08-09T09:49:31.599Z,95503.00
2018-08-09T09:55:00.960Z,95504.00
2018-08-09T10:00:34.301Z,95500.00
2018-08-09T10:06:03.500Z,95491.00
2018-08-09T10:11:32.686Z,95483.00
2018-08-09T10:17:01.931Z,95486.00
2018-08-09T10:22:31.104Z,95477.00
2018-08-09T10:28:00.347Z,95467.00
2018-08-09T10:33:29.766Z,95472.00
2018-08-09T10:38:59.007Z,95460.00
2018-08-09T10:44:28.220Z,95458.00
2018-08-09T10:49:57.579Z,95442.00
2018-08-09T10:55:26.962Z,95442.00
2018-08-09T11:00:56.177Z,95433.00
2018-08-09T11:06:25.436Z,95425.00
2018-08-09T11:11:54.803Z,95417.00
2018-08-09T11:17:24.151Z,95412.00
2018-08-09T11:22:53.443Z,95412.00
2018-08-09T11:28:25.914Z,95408.00
2018-08-09T11:33:55.212Z,95417.00
2018-08-09T11:39:24.579Z,95425.00
2018-08-09T11:44:53.898Z,95423.00
2018-08-09T11:50:23.231Z,95404.00
2018-08-09T11:55:52.879Z,95402.00
2018-08-09T12:01:22.384Z,95390.00
2018-08-09T12:06:51.858Z,95382.00
2018-08-09T12:12:21.187Z,95376.00
2018-08-09T12:17:50.529Z,95378.00
2018-08-09T12:23:19.871Z,95371.00
2018-08-09T12:28:49.092Z,95375.00
2018-08-09T12:34:18.575Z,95361.00
2018-08-09T12:39:47.819Z,95362.00
2018-08-09T12:45:17.169Z,95345.00
2018-08-09T12:50:46.352Z,95342.00
2018-08-09T12:56:15.679Z,95344.00
2018-08-09T13:01:45.508Z,95337.00
2018-08-09T13:07:14.824Z,95324.00
2018-08-09T13:12:44.043Z,95314.00
2018-08-09T13:18:13.478Z,95312.00
2018-08-09T13:23:42.799Z,95310.00
2018-08-09T13:29:12.391Z,95308.00
2018-08-09T13:34:41.573Z,95304.00
2018-08-09T13:40:11.403Z,95303.00
2018-08-09T13:45:40.745Z,95301.00
2018-08-09T13:51:10.092Z,95301.00
2018-08-09T13:56:39.365Z,95290.00
2018-08-09T14:02:08.743Z,95286.00
2018-08-09T14:07:40.222Z,95293.00
2018-08-09T14:13:10.402Z,95291.00
2018-08-09T14:18:39.860Z,95299.00
2018-08-09T14:24:09.576Z,95296.00
2018-08-09T14:29:38.932Z,95291.00
2018-08-09T14:35:11.299Z,95291.00
2018-08-09T14:40:40.483Z,95301.00
2018-08-09T14:46:09.898Z,95303.00
2018-08-09T14:51:39.151Z,95302.00
2018-08-09T14:57:08.479Z,95302.00
2018-08-09T15:02:37.764Z,95289.00
2018-08-09T15:08:07.167Z,95293.00
2018-08-09T15:13:36.923Z,95293.00
2018-08-09T15:19:06.270Z,95293.00
2018-08-09T15:24:35.511Z,95293.00
2018-08-09T15:30:09.384Z,95300.00
2018-08-09T15:35:38.631Z,95306.00
2018-08-09T15:41:07.864Z,95301.00
2018-08-09T15:46:37.096Z,95307.00
2018-08-09T15:52:06.559Z,95308.00
2018-08-09T15:57:35.815Z,95311.00
2018-08-09T16:03:05.148Z,95304.00
2018-08-09T16:08:34.536Z,95294.00
2018-08-09T16:14:03.976Z,95298.00
2018-08-09T16:19:33.384Z,95293.00
2018-08-09T16:25:02.608Z,95305.00
2018-08-09T16:30:32.004Z,95304.00
2018-08-09T16:36:01.222Z,95310.00
2018-08-09T16:41:30.739Z,95320.00
2018-08-09T16:47:00.088Z,95338.00
2018-08-09T16:52:29.523Z,95341.00
2018-08-09T16:57:58.754Z,95332.00
2018-08-09T17:03:28.087Z,95336.00
2018-08-09T17:08:58.112Z,95338.00
2018-08-09T17:14:27.462Z,95342.00
2018-08-09T17:19:56.808Z,95340.00
2018-08-09T17:25:26.196Z,95362.00
2018-08-09T17:30:55.479Z,95376.00
2018-08-09T17:36:25.080Z,95376.00
2018-08-09T17:41:54.435Z,95402.00
2018-08-09T17:47:24.118Z,95438.00
2018-08-09T17:52:53.976Z,95485.00
2018-08-09T17:58:23.397Z,95531.00
2018-08-09T18:03:53.105Z,95558.00
2018-08-09T18:09:22.495Z,95605.00
2018-08-09T18:14:51.907Z,95637.00
2018-08-09T18:20:24.204Z,95695.00
2018-08-09T18:25:54.891Z,95741.00
2018-08-09T18:31:24.597Z,95771.00
2018-08-09T18:36:54.323Z,95776.00
2018-08-09T18:42:23.908Z,95770.00
2018-08-09T18:47:53.238Z,95761.00
2018-08-09T18:53:23.028Z,95755.00
2018-08-09T18:58:52.355Z,95751.00
2018-08-09T19:04:21.599Z,95757.00
2018-08-09T19:09:51.269Z,95784.00
2018-08-09T19:15:20.875Z,95801.00
2018-08-09T19:20:50.210Z,95823.00
2018-08-09T19:26:19.514Z,95816.00
2018-08-09T19:31:48.903Z,95824.00
2018-08-09T19:37:18.178Z,95813.00
2018-08-09T19:42:47.642Z,95828.00
2018-08-09T19:48:16.926Z,95860.00
2018-08-09T19:53:47.127Z,95849.00
2018-08-09T19:59:16.340Z,95868.00
2018-08-09T20:04:46.562Z,95860.00
2018-08-09T20:10:16.291Z,95855.00
2018-08-09T20:15:45.791Z,95841.00
2018-08-09T20:21:15.228Z,95854.00
2018-08-09T20:26:44.580Z,95842.00
2018-08-09T20:32:13.903Z,95842.00
2018-08-09T20:37:44.026Z,95868.00
2018-08-09T20:43:13.504Z,95881.00
2018-08-09T20:48:42.761Z,95879.00
2018-08-09T20:54:11.967Z,95897.00
2018-08-09T20:59:41.171Z,95891.00
2018-08-09T21:05:15.796Z,95888.00
2018-08-09T21:10:45.308Z,95888.00
2018-08-09T21:16:15.411Z,95890.00
2018-08-09T21:21:44.696Z,95896.00
2018-08-09T21:27:15.809Z,95894.00
2018-08-09T21:32:45.709Z,95903.00
2018-08-09T21:38:14.950Z,95920.00
2018-08-09T21:43:44.279Z,95918.00
2018-08-09T21:49:13.575Z,95922.00
2018-08-09T21:54:42.848Z,95929.00
2018-08-09T22:00:27.233Z,95946.00
2018-08-09T22:06:01.998Z,95962.00
2018-08-09T22:11:36.380Z,95972.00
2018-08-09T22:17:10.920Z,95975.00
2018-08-09T22:22:40.333Z,95956.00
2018-08-09T22:28:09.611Z,95970.00
2018-08-09T22:33:39.174Z,95976.00
2018-08-09T22:39:09.799Z,95984.00
2018-08-09T22:44:39.106Z,95980.00
2018-08-09T22:50:08.381Z,96001.00
2018-08-09T22:55:37.713Z,96009.00
2018-08-09T23:01:07.035Z,96022.00
2018-08-09T23:06:36.287Z,96027.00
2018-08-09T23:12:05.515Z,96044.00
2018-08-09T23:17:34.779Z,96039.00
2018-08-09T23:23:04.078Z,96057.00
2018-08-09T23:28:33.410Z,96067.00
2018-08-09T23:34:02.701Z,96070.00
2018-08-09T23:39:31.992Z,96079.00
2018-08-09T23:45:01.270Z,96078.00
2018-08-09T23:50:30.478Z,96075.00
2018-08-09T23:56:00.477Z,96085.00
